Weather at Tyce Airport [CLOSED]

Public forecast

Using degrees Fahrenheit for public forecast. Weather courtesy of forecast.io.

Closest aviation weather report (METAR) to Tyce Airport

Closest report is Naval Outlying Field Imperial Beach (Ream Field), 3.9 nm (7.1 km) SSW.

2024/07/16 18:53 (retrieved 36 minutes ago)

KNRS 161853Z 28011KT 10SM SCT014 SCT040 BKN200 22/17 A3001 RMK AO2 SLP162 T02220172

Closest aviation forecast (TAF) to Tyce Airport

Closest forecast is San Diego International Airport, 7.7 nm (14.2 km) NW.

2024/07/16 19:42 Ammendment (retrieved 0 seconds ago)

TAF AMD KSAN 161840Z 1619/1724 28010KT P6SM SCT015 SCT200 FM170300 VRB05KT P6SM OVC012 FM171800 26005KT P6SM SCT015 FM171900 27011KT P6SM SCT015